aviador You're here:

CYGV Decoded Metar

HAVRE ST PIERRE in QC, CANADA
Report Time2018-06-25 05:00:00
UTC Time2018-06-25 06:08:41
Flight Rules Old
Wind050° at 03 kt
W.Decomp.*RWY 08: 3.0 kt HW 0.5 kt LCW
W.Rank050° ranks 6
Current wind is below 050° avg. (8.4)
Visibility9999 m
Phenomena:N/A
Clouds:Few 250 Hf
Expected CloudBase > 400 ft AGL from Temp-Dew spread
CeilingNone
Temp07°C (ISA -8)
Dew Point06°C (93% RH)
AAT5.0°C
QNH1014 hPa
Density Alt-735 ft
Elevation108 ft
Report Wrong Elevation
Raw Report
CYGV 250500Z AUTO 05003KT 9SM FEW250 07/06 A2995 RMK SLP146=

Extra information for CYGV:More info

Metar Taf Metar & Taf Last 4 Metars F.Rules Stats Wind Profile Meteogram Temp Stats Airport Information Weather charts Add Link Nearby VenuesMetar ALERT Operation Metar Decoded Social comments